G44MA EGNS-EGAC
Flight info
| Callsign | G44MA |
|---|---|
| Flight time | 0h 39m |
| Altitude | 6000 |
| Route | IOM DCT RINGA DCT MAGEE |
| Aircraft | C172/L-SFG/C |
Departure
| Time | 2026-05-04 19:22 |
|---|---|
| Airport | Isle of Man Airport (EGNS) |
Arrival
| Time | 2026-05-04 20:01 |
|---|---|
| Airport | George Best Belfast City Airport (EGAC) |
| Time | Latitude | Longitude | Altitude | Speed | Heading |
|---|---|---|---|---|---|
| 2026-05-04 19:15 | 54.08250 | -4.61597 | 33 ft | 0 kts | 58° |
| 2026-05-04 19:19 | 54.08294 | -4.61592 | 33 ft | 9 kts | 333° |
| 2026-05-04 19:19 | 54.08331 | -4.61522 | 34 ft | 16 kts | 56° |
| 2026-05-04 19:20 | 54.08408 | -4.61400 | 36 ft | 14 kts | 351° |
| 2026-05-04 19:20 | 54.08437 | -4.61441 | 36 ft | 1 kts | 264° |
| 2026-05-04 19:20 | 54.08437 | -4.61451 | 36 ft | 0 kts | 270° |
| 2026-05-04 19:20 | 54.08437 | -4.61454 | 36 ft | 0 kts | 273° |
| 2026-05-04 19:21 | 54.08435 | -4.61493 | 35 ft | 22 kts | 254° |
| 2026-05-04 19:21 | 54.08379 | -4.62115 | 125 ft | 64 kts | 253° |
| 2026-05-04 19:21 | 54.08087 | -4.62448 | 485 ft | 44 kts | 211° |
| 2026-05-04 19:21 | 54.07849 | -4.62788 | 667 ft | 49 kts | 234° |
| 2026-05-04 19:22 | 54.07697 | -4.63465 | 784 ft | 71 kts | 274° |
| 2026-05-04 19:22 | 54.07732 | -4.64382 | 913 ft | 85 kts | 279° |
| 2026-05-04 19:22 | 54.07744 | -4.65456 | 1051 ft | 96 kts | 274° |
| 2026-05-04 19:22 | 54.07701 | -4.66598 | 1255 ft | 98 kts | 271° |
| 2026-05-04 19:23 | 54.07620 | -4.67755 | 1459 ft | 99 kts | 269° |
| 2026-05-04 19:23 | 54.07518 | -4.68913 | 1659 ft | 99 kts | 268° |
| 2026-05-04 19:23 | 54.07400 | -4.70081 | 1861 ft | 100 kts | 267° |
| 2026-05-04 19:23 | 54.07277 | -4.71237 | 2064 ft | 99 kts | 267° |
| 2026-05-04 19:24 | 54.07150 | -4.72382 | 2266 ft | 98 kts | 266° |
| 2026-05-04 19:24 | 54.07022 | -4.73510 | 2468 ft | 97 kts | 266° |
| 2026-05-04 19:24 | 54.06893 | -4.74629 | 2667 ft | 96 kts | 266° |
| 2026-05-04 19:24 | 54.06773 | -4.75737 | 2860 ft | 93 kts | 274° |
| 2026-05-04 19:25 | 54.06961 | -4.76720 | 3057 ft | 87 kts | 303° |
| 2026-05-04 19:25 | 54.07274 | -4.77582 | 3262 ft | 85 kts | 306° |
| 2026-05-04 19:25 | 54.07600 | -4.78424 | 3471 ft | 85 kts | 307° |
| 2026-05-04 19:25 | 54.07932 | -4.79253 | 3681 ft | 85 kts | 307° |
| 2026-05-04 19:26 | 54.08266 | -4.80078 | 3892 ft | 85 kts | 307° |
| 2026-05-04 19:26 | 54.08600 | -4.80896 | 4096 ft | 85 kts | 307° |
| 2026-05-04 19:26 | 54.08936 | -4.81714 | 4302 ft | 85 kts | 307° |
| 2026-05-04 19:26 | 54.09274 | -4.82533 | 4500 ft | 84 kts | 307° |
| 2026-05-04 19:27 | 54.09612 | -4.83351 | 4699 ft | 84 kts | 307° |
| 2026-05-04 19:27 | 54.09951 | -4.84169 | 4894 ft | 84 kts | 307° |
| 2026-05-04 19:27 | 54.10290 | -4.84986 | 5115 ft | 84 kts | 307° |
| 2026-05-04 19:27 | 54.10628 | -4.85799 | 5314 ft | 86 kts | 307° |
| 2026-05-04 19:28 | 54.10975 | -4.86633 | 5466 ft | 89 kts | 307° |
| 2026-05-04 19:28 | 54.11342 | -4.87508 | 5607 ft | 91 kts | 306° |
| 2026-05-04 19:28 | 54.11713 | -4.88400 | 5739 ft | 93 kts | 306° |
| 2026-05-04 19:28 | 54.12087 | -4.89299 | 5864 ft | 93 kts | 306° |
| 2026-05-04 19:29 | 54.12467 | -4.90212 | 5961 ft | 96 kts | 306° |
| 2026-05-04 19:29 | 54.12870 | -4.91179 | 5983 ft | 103 kts | 307° |
| 2026-05-04 19:29 | 54.13289 | -4.92184 | 5981 ft | 106 kts | 307° |
| 2026-05-04 19:29 | 54.13717 | -4.93209 | 5978 ft | 106 kts | 307° |
| 2026-05-04 19:30 | 54.14146 | -4.94243 | 5975 ft | 106 kts | 307° |
| 2026-05-04 19:30 | 54.14574 | -4.95273 | 5985 ft | 107 kts | 307° |
| 2026-05-04 19:30 | 54.15007 | -4.96315 | 5981 ft | 107 kts | 307° |
| 2026-05-04 19:30 | 54.15435 | -4.97345 | 5980 ft | 107 kts | 307° |
| 2026-05-04 19:31 | 54.15862 | -4.98378 | 5982 ft | 107 kts | 307° |
| 2026-05-04 19:31 | 54.16293 | -4.99418 | 5978 ft | 106 kts | 306° |
| 2026-05-04 19:31 | 54.16715 | -5.00441 | 5990 ft | 106 kts | 306° |
| 2026-05-04 19:31 | 54.17149 | -5.01491 | 5983 ft | 107 kts | 306° |
| 2026-05-04 19:32 | 54.17576 | -5.02527 | 5982 ft | 107 kts | 306° |
| 2026-05-04 19:32 | 54.18000 | -5.03554 | 5981 ft | 107 kts | 306° |
| 2026-05-04 19:32 | 54.18427 | -5.04590 | 5983 ft | 107 kts | 307° |
| 2026-05-04 19:32 | 54.18855 | -5.05632 | 5982 ft | 106 kts | 307° |
| 2026-05-04 19:33 | 54.19285 | -5.06675 | 5979 ft | 106 kts | 307° |
| 2026-05-04 19:33 | 54.19707 | -5.07702 | 5978 ft | 106 kts | 307° |
| 2026-05-04 19:33 | 54.20129 | -5.08723 | 5983 ft | 106 kts | 307° |
| 2026-05-04 19:33 | 54.20554 | -5.09754 | 5983 ft | 107 kts | 307° |
| 2026-05-04 19:34 | 54.20986 | -5.10802 | 5983 ft | 107 kts | 307° |
| 2026-05-04 19:34 | 54.21412 | -5.11838 | 5981 ft | 107 kts | 307° |
| 2026-05-04 19:34 | 54.21838 | -5.12873 | 5984 ft | 107 kts | 307° |
| 2026-05-04 19:34 | 54.22264 | -5.13909 | 5982 ft | 106 kts | 306° |
| 2026-05-04 19:35 | 54.22692 | -5.14950 | 5982 ft | 106 kts | 306° |
| 2026-05-04 19:35 | 54.23114 | -5.15978 | 5981 ft | 106 kts | 306° |
| 2026-05-04 19:35 | 54.23533 | -5.17002 | 5981 ft | 106 kts | 306° |
| 2026-05-04 19:35 | 54.23958 | -5.18039 | 5983 ft | 105 kts | 307° |
| 2026-05-04 19:36 | 54.24378 | -5.19063 | 5982 ft | 105 kts | 307° |
| 2026-05-04 19:36 | 54.24800 | -5.20094 | 5981 ft | 105 kts | 307° |
| 2026-05-04 19:36 | 54.25219 | -5.21115 | 5981 ft | 105 kts | 307° |
| 2026-05-04 19:36 | 54.25639 | -5.22138 | 5983 ft | 106 kts | 307° |
| 2026-05-04 19:37 | 54.26059 | -5.23163 | 5983 ft | 106 kts | 307° |
| 2026-05-04 19:37 | 54.26482 | -5.24195 | 5982 ft | 106 kts | 307° |
| 2026-05-04 19:37 | 54.26901 | -5.25221 | 5983 ft | 106 kts | 307° |
| 2026-05-04 19:37 | 54.27324 | -5.26255 | 5983 ft | 106 kts | 307° |
| 2026-05-04 19:38 | 54.27750 | -5.27297 | 5983 ft | 106 kts | 307° |
| 2026-05-04 19:38 | 54.28169 | -5.28322 | 5984 ft | 106 kts | 307° |
| 2026-05-04 19:38 | 54.28589 | -5.29350 | 5984 ft | 105 kts | 307° |
| 2026-05-04 19:38 | 54.29008 | -5.30375 | 5984 ft | 105 kts | 306° |
| 2026-05-04 19:39 | 54.29429 | -5.31408 | 5984 ft | 105 kts | 307° |
| 2026-05-04 19:39 | 54.29845 | -5.32427 | 5983 ft | 104 kts | 306° |
| 2026-05-04 19:39 | 54.30259 | -5.33443 | 5984 ft | 104 kts | 306° |
| 2026-05-04 19:39 | 54.30672 | -5.34458 | 5984 ft | 104 kts | 307° |
| 2026-05-04 19:40 | 54.31094 | -5.35493 | 5985 ft | 105 kts | 307° |
| 2026-05-04 19:40 | 54.31509 | -5.36512 | 5985 ft | 105 kts | 307° |
| 2026-05-04 19:40 | 54.31924 | -5.37533 | 5984 ft | 105 kts | 307° |
| 2026-05-04 19:40 | 54.32345 | -5.38565 | 5984 ft | 105 kts | 307° |
| 2026-05-04 19:41 | 54.32760 | -5.39585 | 5985 ft | 105 kts | 307° |
| 2026-05-04 19:41 | 54.33178 | -5.40613 | 5985 ft | 105 kts | 307° |
| 2026-05-04 19:41 | 54.33600 | -5.41650 | 5984 ft | 105 kts | 307° |
| 2026-05-04 19:41 | 54.34017 | -5.42676 | 5984 ft | 105 kts | 306° |
| 2026-05-04 19:42 | 54.34436 | -5.43707 | 5983 ft | 105 kts | 306° |
| 2026-05-04 19:42 | 54.34846 | -5.44743 | 5984 ft | 105 kts | 303° |
| 2026-05-04 19:42 | 54.35102 | -5.45918 | 5983 ft | 106 kts | 289° |
| 2026-05-04 19:42 | 54.35302 | -5.47144 | 5984 ft | 106 kts | 289° |
| 2026-05-04 19:43 | 54.35518 | -5.48344 | 5984 ft | 105 kts | 292° |
| 2026-05-04 19:43 | 54.35756 | -5.49523 | 5985 ft | 105 kts | 292° |
| 2026-05-04 19:43 | 54.35996 | -5.50706 | 5985 ft | 105 kts | 292° |
| 2026-05-04 19:43 | 54.36238 | -5.51889 | 5985 ft | 105 kts | 292° |
| 2026-05-04 19:44 | 54.36479 | -5.53067 | 5985 ft | 105 kts | 292° |
| 2026-05-04 19:44 | 54.36720 | -5.54255 | 5986 ft | 105 kts | 292° |
| 2026-05-04 19:44 | 54.36963 | -5.55447 | 5986 ft | 105 kts | 292° |
| 2026-05-04 19:44 | 54.37204 | -5.56631 | 5985 ft | 106 kts | 292° |
| 2026-05-04 19:45 | 54.37450 | -5.57826 | 5986 ft | 106 kts | 292° |
| 2026-05-04 19:45 | 54.37698 | -5.59026 | 5985 ft | 106 kts | 292° |
| 2026-05-04 19:45 | 54.37943 | -5.60209 | 5984 ft | 106 kts | 292° |
| 2026-05-04 19:45 | 54.38190 | -5.61406 | 5984 ft | 105 kts | 292° |
| 2026-05-04 19:46 | 54.38434 | -5.62588 | 5983 ft | 105 kts | 292° |
| 2026-05-04 19:46 | 54.38673 | -5.63751 | 5983 ft | 104 kts | 293° |
| 2026-05-04 19:46 | 54.38916 | -5.64934 | 5983 ft | 104 kts | 292° |
| 2026-05-04 19:46 | 54.39155 | -5.66109 | 5986 ft | 104 kts | 292° |
| 2026-05-04 19:47 | 54.39398 | -5.67300 | 5985 ft | 105 kts | 292° |
| 2026-05-04 19:47 | 54.39634 | -5.68457 | 5985 ft | 105 kts | 292° |
| 2026-05-04 19:47 | 54.39877 | -5.69646 | 5983 ft | 105 kts | 292° |
| 2026-05-04 19:47 | 54.40116 | -5.70831 | 5984 ft | 105 kts | 292° |
| 2026-05-04 19:48 | 54.40358 | -5.72018 | 5984 ft | 105 kts | 292° |
| 2026-05-04 19:48 | 54.40599 | -5.73208 | 5983 ft | 105 kts | 292° |
| 2026-05-04 19:48 | 54.40834 | -5.74381 | 5985 ft | 105 kts | 292° |
| 2026-05-04 19:48 | 54.41071 | -5.75561 | 5986 ft | 105 kts | 292° |
| 2026-05-04 19:49 | 54.41311 | -5.76743 | 5987 ft | 105 kts | 293° |
| 2026-05-04 19:49 | 54.41663 | -5.77841 | 5988 ft | 104 kts | 303° |
| 2026-05-04 19:49 | 54.42051 | -5.78911 | 5985 ft | 105 kts | 304° |
| 2026-05-04 19:49 | 54.42447 | -5.79948 | 5986 ft | 104 kts | 305° |
| 2026-05-04 19:50 | 54.42846 | -5.80979 | 5984 ft | 99 kts | 306° |
| 2026-05-04 19:50 | 54.43212 | -5.81926 | 5829 ft | 93 kts | 305° |
| 2026-05-04 19:50 | 54.43570 | -5.82852 | 5584 ft | 96 kts | 306° |
| 2026-05-04 19:50 | 54.43939 | -5.83806 | 5326 ft | 96 kts | 306° |
| 2026-05-04 19:51 | 54.44309 | -5.84765 | 5078 ft | 96 kts | 306° |
| 2026-05-04 19:51 | 54.44676 | -5.85715 | 4825 ft | 96 kts | 306° |
| 2026-05-04 19:51 | 54.45041 | -5.86676 | 4563 ft | 96 kts | 306° |
| 2026-05-04 19:51 | 54.45404 | -5.87647 | 4321 ft | 97 kts | 306° |
| 2026-05-04 19:52 | 54.45763 | -5.88620 | 4065 ft | 97 kts | 306° |
| 2026-05-04 19:52 | 54.46124 | -5.89606 | 3804 ft | 97 kts | 306° |
| 2026-05-04 19:52 | 54.46478 | -5.90589 | 3547 ft | 97 kts | 306° |
| 2026-05-04 19:52 | 54.46829 | -5.91564 | 3290 ft | 95 kts | 306° |
| 2026-05-04 19:53 | 54.47164 | -5.92505 | 3032 ft | 91 kts | 306° |
| 2026-05-04 19:53 | 54.47487 | -5.93417 | 2776 ft | 89 kts | 306° |
| 2026-05-04 19:53 | 54.47798 | -5.94299 | 2606 ft | 81 kts | 306° |
| 2026-05-04 19:53 | 54.48075 | -5.95107 | 2477 ft | 77 kts | 305° |
| 2026-05-04 19:54 | 54.48346 | -5.95901 | 2344 ft | 75 kts | 305° |
| 2026-05-04 19:54 | 54.48609 | -5.96658 | 2239 ft | 72 kts | 306° |
| 2026-05-04 19:54 | 54.48853 | -5.97377 | 2156 ft | 69 kts | 305° |
| 2026-05-04 19:54 | 54.49109 | -5.98077 | 2069 ft | 67 kts | 319° |
| 2026-05-04 19:55 | 54.49534 | -5.98321 | 2001 ft | 65 kts | 358° |
| 2026-05-04 19:55 | 54.49970 | -5.98262 | 1984 ft | 60 kts | 2° |
| 2026-05-04 19:55 | 54.50358 | -5.98211 | 1985 ft | 52 kts | 0° |
| 2026-05-04 19:55 | 54.50733 | -5.98154 | 1990 ft | 55 kts | 0° |
| 2026-05-04 19:56 | 54.51127 | -5.98098 | 1987 ft | 57 kts | 360° |
| 2026-05-04 19:56 | 54.51519 | -5.98052 | 1987 ft | 57 kts | 359° |
| 2026-05-04 19:56 | 54.51918 | -5.98014 | 1990 ft | 57 kts | 359° |
| 2026-05-04 19:56 | 54.52317 | -5.97972 | 1987 ft | 57 kts | 358° |
| 2026-05-04 19:57 | 54.52710 | -5.97932 | 1983 ft | 56 kts | 1° |
| 2026-05-04 19:57 | 54.53091 | -5.97622 | 1933 ft | 65 kts | 22° |
| 2026-05-04 19:57 | 54.53496 | -5.97161 | 1860 ft | 74 kts | 26° |
| 2026-05-04 19:57 | 54.53942 | -5.96630 | 1765 ft | 79 kts | 28° |
| 2026-05-04 19:58 | 54.54388 | -5.96081 | 1666 ft | 78 kts | 27° |
| 2026-05-04 19:58 | 54.54832 | -5.95554 | 1569 ft | 78 kts | 28° |
| 2026-05-04 19:58 | 54.55278 | -5.95022 | 1467 ft | 79 kts | 29° |
| 2026-05-04 19:58 | 54.55725 | -5.94495 | 1359 ft | 77 kts | 29° |
| 2026-05-04 19:59 | 54.56177 | -5.93953 | 1250 ft | 80 kts | 28° |
| 2026-05-04 19:59 | 54.56642 | -5.93407 | 1136 ft | 90 kts | 28° |
| 2026-05-04 19:59 | 54.57196 | -5.92752 | 1010 ft | 98 kts | 33° |
| 2026-05-04 19:59 | 54.57758 | -5.92068 | 878 ft | 101 kts | 31° |
| 2026-05-04 20:00 | 54.58336 | -5.91382 | 742 ft | 101 kts | 32° |
| 2026-05-04 20:00 | 54.58914 | -5.90694 | 604 ft | 101 kts | 32° |
| 2026-05-04 20:00 | 54.59497 | -5.90001 | 465 ft | 102 kts | 32° |
| 2026-05-04 20:00 | 54.60033 | -5.89335 | 379 ft | 85 kts | 35° |
| 2026-05-04 20:01 | 54.60490 | -5.88802 | 289 ft | 73 kts | 31° |
| 2026-05-04 20:01 | 54.60916 | -5.88312 | 144 ft | 73 kts | 30° |
| 2026-05-04 20:01 | 54.61303 | -5.87851 | 15 ft | 53 kts | 28° |
| 2026-05-04 20:01 | 54.61533 | -5.87588 | 15 ft | 33 kts | 30° |
| 2026-05-04 20:02 | 54.61720 | -5.87367 | 14 ft | 30 kts | 35° |
| 2026-05-04 20:02 | 54.61827 | -5.87222 | 14 ft | 12 kts | 59° |
| 2026-05-04 20:02 | 54.61804 | -5.87099 | 14 ft | 10 kts | 123° |
| 2026-05-04 20:02 | 54.61774 | -5.87027 | 14 ft | 3 kts | 125° |
| 2026-05-04 20:03 | 54.61753 | -5.86993 | 14 ft | 5 kts | 161° |
| 2026-05-04 20:03 | 54.61704 | -5.87015 | 14 ft | 8 kts | 218° |
| 2026-05-04 20:03 | 54.61645 | -5.87085 | 14 ft | 11 kts | 212° |
| 2026-05-04 20:03 | 54.61572 | -5.87172 | 14 ft | 14 kts | 210° |
| 2026-05-04 20:04 | 54.61487 | -5.87277 | 14 ft | 15 kts | 214° |
| 2026-05-04 20:04 | 54.61403 | -5.87392 | 14 ft | 14 kts | 233° |
| 2026-05-04 20:04 | 54.61340 | -5.87495 | 14 ft | 12 kts | 210° |
| 2026-05-04 20:04 | 54.61275 | -5.87570 | 14 ft | 10 kts | 217° |
| 2026-05-04 20:05 | 54.61226 | -5.87634 | 14 ft | 7 kts | 212° |
| 2026-05-04 20:05 | 54.61185 | -5.87680 | 14 ft | 6 kts | 210° |
| 2026-05-04 20:05 | 54.61151 | -5.87711 | 14 ft | 4 kts | 200° |
| 2026-05-04 20:05 | 54.61124 | -5.87692 | 14 ft | 3 kts | 140° |
| 2026-05-04 20:06 | 54.61113 | -5.87674 | 14 ft | 0 kts | 135° |